sensor_id;sensor_type;location;lat;lon;timestamp;P1;durP1;ratioP1;P2;durP2;ratioP2
19842;SDS011;10082;51.038;6.992;2022-10-17T00:01:37;9.18;;;8.07;;
19842;SDS011;10082;51.038;6.992;2022-10-17T00:04:04;9.45;;;8.65;;
19842;SDS011;10082;51.038;6.992;2022-10-17T00:06:31;8.43;;;7.63;;
19842;SDS011;10082;51.038;6.992;2022-10-17T00:08:57;9.25;;;7.50;;
19842;SDS011;10082;51.038;6.992;2022-10-17T00:11:26;8.55;;;7.00;;
19842;SDS011;10082;51.038;6.992;2022-10-17T00:13:53;8.10;;;7.40;;
19842;SDS011;10082;51.038;6.992;2022-10-17T00:16:25;7.80;;;7.10;;
19842;SDS011;10082;51.038;6.992;2022-10-17T00:18:53;8.50;;;7.72;;
19842;SDS011;10082;51.038;6.992;2022-10-17T00:21:21;7.85;;;7.15;;
19842;SDS011;10082;51.038;6.992;2022-10-17T00:23:48;10.43;;;7.63;;
19842;SDS011;10082;51.038;6.992;2022-10-17T00:26:16;9.65;;;7.63;;
19842;SDS011;10082;51.038;6.992;2022-10-17T00:28:46;9.45;;;7.78;;
19842;SDS011;10082;51.038;6.992;2022-10-17T00:31:14;8.55;;;7.80;;
19842;SDS011;10082;51.038;6.992;2022-10-17T00:33:42;9.18;;;8.40;;
19842;SDS011;10082;51.038;6.992;2022-10-17T00:36:10;9.55;;;8.10;;
19842;SDS011;10082;51.038;6.992;2022-10-17T00:38:39;8.98;;;6.72;;
19842;SDS011;10082;51.038;6.992;2022-10-17T00:41:07;8.73;;;7.72;;
19842;SDS011;10082;51.038;6.992;2022-10-17T00:43:50;7.88;;;7.07;;
19842;SDS011;10082;51.038;6.992;2022-10-17T00:46:18;7.72;;;7.00;;
19842;SDS011;10082;51.038;6.992;2022-10-17T00:48:46;9.43;;;8.65;;
19842;SDS011;10082;51.038;6.992;2022-10-17T00:51:15;8.27;;;7.28;;
19842;SDS011;10082;51.038;6.992;2022-10-17T00:53:44;8.57;;;7.68;;
19842;SDS011;10082;51.038;6.992;2022-10-17T00:56:11;7.28;;;6.50;;
19842;SDS011;10082;51.038;6.992;2022-10-17T00:58:38;7.68;;;6.85;;
19842;SDS011;10082;51.038;6.992;2022-10-17T01:01:07;8.05;;;7.25;;
19842;SDS011;10082;51.038;6.992;2022-10-17T01:03:34;7.40;;;6.70;;
19842;SDS011;10082;51.038;6.992;2022-10-17T01:06:01;7.20;;;6.60;;
19842;SDS011;10082;51.038;6.992;2022-10-17T01:08:28;7.78;;;7.03;;
19842;SDS011;10082;51.038;6.992;2022-10-17T01:10:56;10.10;;;7.32;;
19842;SDS011;10082;51.038;6.992;2022-10-17T01:13:33;7.38;;;6.45;;
19842;SDS011;10082;51.038;6.992;2022-10-17T01:16:12;8.70;;;6.78;;
19842;SDS011;10082;51.038;6.992;2022-10-17T01:18:50;6.78;;;6.18;;
19842;SDS011;10082;51.038;6.992;2022-10-17T01:21:29;7.72;;;7.03;;
19842;SDS011;10082;51.038;6.992;2022-10-17T01:33:16;8.40;;;7.45;;
19842;SDS011;10082;51.038;6.992;2022-10-17T01:35:54;7.15;;;6.45;;
19842;SDS011;10082;51.038;6.992;2022-10-17T01:38:26;8.05;;;7.22;;
19842;SDS011;10082;51.038;6.992;2022-10-17T01:40:59;7.28;;;6.57;;
19842;SDS011;10082;51.038;6.992;2022-10-17T01:43:31;8.50;;;6.70;;
19842;SDS011;10082;51.038;6.992;2022-10-17T01:46:06;7.82;;;6.65;;
19842;SDS011;10082;51.038;6.992;2022-10-17T01:48:37;10.63;;;7.10;;
19842;SDS011;10082;51.038;6.992;2022-10-17T01:51:10;6.55;;;6.03;;
19842;SDS011;10082;51.038;6.992;2022-10-17T01:53:44;8.13;;;7.28;;
19842;SDS011;10082;51.038;6.992;2022-10-17T01:56:15;8.68;;;6.18;;
19842;SDS011;10082;51.038;6.992;2022-10-17T01:58:46;7.53;;;6.75;;
19842;SDS011;10082;51.038;6.992;2022-10-17T02:01:20;6.80;;;6.25;;
19842;SDS011;10082;51.038;6.992;2022-10-17T02:03:50;8.73;;;7.20;;
19842;SDS011;10082;51.038;6.992;2022-10-17T02:06:19;7.78;;;6.93;;
19842;SDS011;10082;51.038;6.992;2022-10-17T02:08:48;6.78;;;6.18;;
19842;SDS011;10082;51.038;6.992;2022-10-17T02:11:19;7.50;;;6.43;;
19842;SDS011;10082;51.038;6.992;2022-10-17T02:14:01;6.97;;;5.50;;
19842;SDS011;10082;51.038;6.992;2022-10-17T02:16:41;7.72;;;5.90;;
19842;SDS011;10082;51.038;6.992;2022-10-17T02:19:39;6.05;;;5.45;;
19842;SDS011;10082;51.038;6.992;2022-10-17T02:22:16;7.13;;;5.97;;
19842;SDS011;10082;51.038;6.992;2022-10-17T02:24:51;5.63;;;5.07;;
19842;SDS011;10082;51.038;6.992;2022-10-17T02:27:28;5.82;;;5.22;;
19842;SDS011;10082;51.038;6.992;2022-10-17T02:30:02;5.78;;;5.20;;
19842;SDS011;10082;51.038;6.992;2022-10-17T02:32:37;6.82;;;5.38;;
19842;SDS011;10082;51.038;6.992;2022-10-17T02:35:09;5.85;;;5.28;;
19842;SDS011;10082;51.038;6.992;2022-10-17T02:37:41;5.90;;;5.30;;
19842;SDS011;10082;51.038;6.992;2022-10-17T02:40:11;5.40;;;4.90;;
19842;SDS011;10082;51.038;6.992;2022-10-17T02:42:41;7.20;;;4.78;;
19842;SDS011;10082;51.038;6.992;2022-10-17T02:45:11;5.60;;;5.10;;
19842;SDS011;10082;51.038;6.992;2022-10-17T02:47:42;6.70;;;4.75;;
19842;SDS011;10082;51.038;6.992;2022-10-17T02:50:17;7.38;;;6.25;;
19842;SDS011;10082;51.038;6.992;2022-10-17T02:52:51;7.38;;;5.05;;
19842;SDS011;10082;51.038;6.992;2022-10-17T02:55:23;6.10;;;5.50;;
19842;SDS011;10082;51.038;6.992;2022-10-17T02:57:58;5.75;;;4.93;;
19842;SDS011;10082;51.038;6.992;2022-10-17T03:00:28;6.30;;;4.70;;
19842;SDS011;10082;51.038;6.992;2022-10-17T03:02:58;5.28;;;4.78;;
19842;SDS011;10082;51.038;6.992;2022-10-17T03:05:26;7.10;;;4.93;;
19842;SDS011;10082;51.038;6.992;2022-10-17T03:07:54;5.75;;;4.55;;
19842;SDS011;10082;51.038;6.992;2022-10-17T03:10:23;4.90;;;4.45;;
19842;SDS011;10082;51.038;6.992;2022-10-17T03:12:50;5.50;;;5.00;;
19842;SDS011;10082;51.038;6.992;2022-10-17T03:15:17;4.50;;;4.10;;
19842;SDS011;10082;51.038;6.992;2022-10-17T03:17:44;4.53;;;4.13;;
19842;SDS011;10082;51.038;6.992;2022-10-17T03:20:13;4.47;;;4.07;;
19842;SDS011;10082;51.038;6.992;2022-10-17T03:22:41;6.38;;;4.60;;
19842;SDS011;10082;51.038;6.992;2022-10-17T03:25:08;4.43;;;4.10;;
19842;SDS011;10082;51.038;6.992;2022-10-17T03:27:35;5.03;;;4.53;;
19842;SDS011;10082;51.038;6.992;2022-10-17T03:30:03;5.05;;;4.40;;
19842;SDS011;10082;51.038;6.992;2022-10-17T03:32:32;5.50;;;4.00;;
19842;SDS011;10082;51.038;6.992;2022-10-17T03:34:59;5.97;;;4.40;;
19842;SDS011;10082;51.038;6.992;2022-10-17T03:37:28;5.43;;;4.28;;
19842;SDS011;10082;51.038;6.992;2022-10-17T03:39:55;5.28;;;4.78;;
19842;SDS011;10082;51.038;6.992;2022-10-17T03:42:22;5.45;;;4.10;;
19842;SDS011;10082;51.038;6.992;2022-10-17T03:44:49;4.72;;;4.32;;
19842;SDS011;10082;51.038;6.992;2022-10-17T03:47:16;5.32;;;4.32;;
19842;SDS011;10082;51.038;6.992;2022-10-17T03:49:43;5.45;;;4.50;;
19842;SDS011;10082;51.038;6.992;2022-10-17T03:52:10;5.35;;;4.13;;
19842;SDS011;10082;51.038;6.992;2022-10-17T03:54:40;4.65;;;4.25;;
19842;SDS011;10082;51.038;6.992;2022-10-17T03:57:07;4.88;;;4.43;;
19842;SDS011;10082;51.038;6.992;2022-10-17T03:59:34;4.28;;;3.88;;
19842;SDS011;10082;51.038;6.992;2022-10-17T04:02:06;5.72;;;4.50;;
19842;SDS011;10082;51.038;6.992;2022-10-17T04:04:34;5.15;;;4.22;;
19842;SDS011;10082;51.038;6.992;2022-10-17T04:07:01;6.97;;;4.35;;
19842;SDS011;10082;51.038;6.992;2022-10-17T04:09:28;4.70;;;4.30;;
19842;SDS011;10082;51.038;6.992;2022-10-17T04:12:05;5.75;;;4.20;;
19842;SDS011;10082;51.038;6.992;2022-10-17T04:14:35;5.13;;;4.20;;
19842;SDS011;10082;51.038;6.992;2022-10-17T04:17:03;5.28;;;4.45;;
19842;SDS011;10082;51.038;6.992;2022-10-17T04:19:31;4.55;;;4.15;;
19842;SDS011;10082;51.038;6.992;2022-10-17T04:21:58;6.43;;;4.22;;
19842;SDS011;10082;51.038;6.992;2022-10-17T04:24:28;6.25;;;4.20;;
19842;SDS011;10082;51.038;6.992;2022-10-17T04:27:19;5.57;;;4.18;;
19842;SDS011;10082;51.038;6.992;2022-10-17T04:29:46;4.78;;;3.72;;
19842;SDS011;10082;51.038;6.992;2022-10-17T04:32:21;5.63;;;4.32;;
19842;SDS011;10082;51.038;6.992;2022-10-17T04:35:06;5.05;;;4.35;;
19842;SDS011;10082;51.038;6.992;2022-10-17T04:37:34;4.22;;;3.90;;
19842;SDS011;10082;51.038;6.992;2022-10-17T04:40:08;4.45;;;4.05;;
19842;SDS011;10082;51.038;6.992;2022-10-17T04:42:37;5.50;;;4.30;;
19842;SDS011;10082;51.038;6.992;2022-10-17T04:45:05;4.70;;;4.30;;
19842;SDS011;10082;51.038;6.992;2022-10-17T04:47:34;5.43;;;4.03;;
19842;SDS011;10082;51.038;6.992;2022-10-17T04:50:01;4.85;;;4.43;;
19842;SDS011;10082;51.038;6.992;2022-10-17T04:52:31;4.93;;;4.53;;
19842;SDS011;10082;51.038;6.992;2022-10-17T04:55:01;5.82;;;4.22;;
19842;SDS011;10082;51.038;6.992;2022-10-17T04:57:28;5.18;;;4.55;;
19842;SDS011;10082;51.038;6.992;2022-10-17T05:00:07;7.35;;;4.32;;
19842;SDS011;10082;51.038;6.992;2022-10-17T05:02:53;6.18;;;4.30;;
19842;SDS011;10082;51.038;6.992;2022-10-17T05:05:20;5.28;;;4.18;;
19842;SDS011;10082;51.038;6.992;2022-10-17T05:07:50;4.80;;;4.32;;
19842;SDS011;10082;51.038;6.992;2022-10-17T05:10:20;4.93;;;4.28;;
19842;SDS011;10082;51.038;6.992;2022-10-17T05:12:50;6.45;;;3.90;;
19842;SDS011;10082;51.038;6.992;2022-10-17T05:15:21;4.85;;;4.45;;
19842;SDS011;10082;51.038;6.992;2022-10-17T05:17:53;5.07;;;4.55;;
19842;SDS011;10082;51.038;6.992;2022-10-17T05:20:20;5.45;;;4.40;;
19842;SDS011;10082;51.038;6.992;2022-10-17T05:22:47;4.75;;;4.32;;
19842;SDS011;10082;51.038;6.992;2022-10-17T05:25:14;6.97;;;3.88;;
19842;SDS011;10082;51.038;6.992;2022-10-17T05:27:42;6.65;;;4.20;;
19842;SDS011;10082;51.038;6.992;2022-10-17T05:30:09;6.68;;;4.95;;
19842;SDS011;10082;51.038;6.992;2022-10-17T05:32:39;6.00;;;4.22;;
19842;SDS011;10082;51.038;6.992;2022-10-17T05:35:07;5.90;;;4.55;;
19842;SDS011;10082;51.038;6.992;2022-10-17T05:37:35;6.80;;;4.57;;
19842;SDS011;10082;51.038;6.992;2022-10-17T05:40:03;6.07;;;4.47;;
19842;SDS011;10082;51.038;6.992;2022-10-17T05:42:31;6.55;;;4.25;;
19842;SDS011;10082;51.038;6.992;2022-10-17T05:44:58;4.57;;;4.18;;
19842;SDS011;10082;51.038;6.992;2022-10-17T05:47:25;5.53;;;4.60;;
19842;SDS011;10082;51.038;6.992;2022-10-17T05:49:53;5.72;;;4.15;;
19842;SDS011;10082;51.038;6.992;2022-10-17T05:52:26;5.07;;;4.22;;
19842;SDS011;10082;51.038;6.992;2022-10-17T05:55:02;7.03;;;4.43;;
19842;SDS011;10082;51.038;6.992;2022-10-17T05:57:30;5.45;;;4.18;;
19842;SDS011;10082;51.038;6.992;2022-10-17T05:59:58;6.43;;;4.60;;
19842;SDS011;10082;51.038;6.992;2022-10-17T06:02:25;5.75;;;4.47;;
19842;SDS011;10082;51.038;6.992;2022-10-17T06:04:53;6.15;;;4.30;;
19842;SDS011;10082;51.038;6.992;2022-10-17T06:07:22;7.00;;;4.85;;
19842;SDS011;10082;51.038;6.992;2022-10-17T06:09:49;5.80;;;4.03;;
19842;SDS011;10082;51.038;6.992;2022-10-17T06:12:16;4.63;;;4.10;;
19842;SDS011;10082;51.038;6.992;2022-10-17T06:14:44;5.82;;;4.20;;
19842;SDS011;10082;51.038;6.992;2022-10-17T06:17:12;9.13;;;4.65;;
19842;SDS011;10082;51.038;6.992;2022-10-17T06:19:39;5.93;;;4.85;;
19842;SDS011;10082;51.038;6.992;2022-10-17T06:22:08;4.55;;;4.15;;
19842;SDS011;10082;51.038;6.992;2022-10-17T06:24:35;7.43;;;4.97;;
19842;SDS011;10082;51.038;6.992;2022-10-17T06:27:03;4.53;;;4.13;;
19842;SDS011;10082;51.038;6.992;2022-10-17T06:29:30;7.10;;;4.35;;
19842;SDS011;10082;51.038;6.992;2022-10-17T06:31:57;4.57;;;3.95;;
19842;SDS011;10082;51.038;6.992;2022-10-17T06:34:25;4.53;;;4.03;;
19842;SDS011;10082;51.038;6.992;2022-10-17T06:36:52;4.95;;;4.03;;
19842;SDS011;10082;51.038;6.992;2022-10-17T06:39:21;4.97;;;3.90;;
19842;SDS011;10082;51.038;6.992;2022-10-17T06:42:02;5.75;;;4.40;;
19842;SDS011;10082;51.038;6.992;2022-10-17T06:45:02;7.10;;;3.78;;
19842;SDS011;10082;51.038;6.992;2022-10-17T06:47:51;4.82;;;4.38;;
19842;SDS011;10082;51.038;6.992;2022-10-17T06:50:56;6.40;;;4.38;;
19842;SDS011;10082;51.038;6.992;2022-10-17T06:53:26;7.05;;;4.55;;
19842;SDS011;10082;51.038;6.992;2022-10-17T06:56:26;4.40;;;4.00;;
19842;SDS011;10082;51.038;6.992;2022-10-17T06:59:15;5.38;;;4.18;;
19842;SDS011;10082;51.038;6.992;2022-10-17T07:02:07;5.25;;;4.00;;
19842;SDS011;10082;51.038;6.992;2022-10-17T07:04:35;4.90;;;3.90;;
19842;SDS011;10082;51.038;6.992;2022-10-17T07:07:02;5.72;;;4.20;;
19842;SDS011;10082;51.038;6.992;2022-10-17T07:09:32;5.35;;;4.03;;
19842;SDS011;10082;51.038;6.992;2022-10-17T07:12:01;4.10;;;3.38;;
19842;SDS011;10082;51.038;6.992;2022-10-17T07:14:31;5.85;;;3.50;;
19842;SDS011;10082;51.038;6.992;2022-10-17T07:16:58;4.13;;;3.72;;
19842;SDS011;10082;51.038;6.992;2022-10-17T07:19:27;3.75;;;3.35;;
19842;SDS011;10082;51.038;6.992;2022-10-17T07:21:54;6.97;;;3.90;;
19842;SDS011;10082;51.038;6.992;2022-10-17T07:24:21;4.70;;;3.22;;
19842;SDS011;10082;51.038;6.992;2022-10-17T07:26:54;5.70;;;3.58;;
19842;SDS011;10082;51.038;6.992;2022-10-17T07:29:23;6.85;;;3.70;;
19842;SDS011;10082;51.038;6.992;2022-10-17T07:32:02;3.97;;;3.60;;
19842;SDS011;10082;51.038;6.992;2022-10-17T07:34:32;6.22;;;3.75;;
19842;SDS011;10082;51.038;6.992;2022-10-17T07:37:00;7.63;;;3.60;;
19842;SDS011;10082;51.038;6.992;2022-10-17T07:39:27;4.05;;;3.65;;
19842;SDS011;10082;51.038;6.992;2022-10-17T07:41:54;5.25;;;3.70;;
19842;SDS011;10082;51.038;6.992;2022-10-17T07:44:24;6.03;;;3.38;;
19842;SDS011;10082;51.038;6.992;2022-10-17T07:46:52;3.78;;;3.00;;
19842;SDS011;10082;51.038;6.992;2022-10-17T07:49:19;5.47;;;3.50;;
19842;SDS011;10082;51.038;6.992;2022-10-17T07:51:46;4.60;;;3.20;;
19842;SDS011;10082;51.038;6.992;2022-10-17T07:54:13;4.72;;;3.00;;
19842;SDS011;10082;51.038;6.992;2022-10-17T07:56:40;5.03;;;3.08;;
19842;SDS011;10082;51.038;6.992;2022-10-17T07:59:07;3.45;;;2.63;;
19842;SDS011;10082;51.038;6.992;2022-10-17T08:01:36;4.15;;;3.63;;
19842;SDS011;10082;51.038;6.992;2022-10-17T08:04:03;5.55;;;3.22;;
19842;SDS011;10082;51.038;6.992;2022-10-17T08:06:29;7.35;;;3.72;;
19842;SDS011;10082;51.038;6.992;2022-10-17T08:08:56;3.92;;;3.47;;
19842;SDS011;10082;51.038;6.992;2022-10-17T08:11:23;5.65;;;3.53;;
19842;SDS011;10082;51.038;6.992;2022-10-17T08:13:50;5.57;;;3.38;;
19842;SDS011;10082;51.038;6.992;2022-10-17T08:16:17;4.70;;;3.28;;
19842;SDS011;10082;51.038;6.992;2022-10-17T08:18:46;4.07;;;2.60;;
19842;SDS011;10082;51.038;6.992;2022-10-17T08:21:12;4.10;;;2.60;;
19842;SDS011;10082;51.038;6.992;2022-10-17T08:23:39;3.08;;;2.78;;
19842;SDS011;10082;51.038;6.992;2022-10-17T08:26:07;4.07;;;2.90;;
19842;SDS011;10082;51.038;6.992;2022-10-17T08:28:38;4.53;;;3.00;;
19842;SDS011;10082;51.038;6.992;2022-10-17T08:31:06;3.85;;;3.03;;
19842;SDS011;10082;51.038;6.992;2022-10-17T08:33:35;5.65;;;2.95;;
19842;SDS011;10082;51.038;6.992;2022-10-17T08:36:04;5.13;;;3.10;;
19842;SDS011;10082;51.038;6.992;2022-10-17T08:38:32;3.58;;;3.10;;
19842;SDS011;10082;51.038;6.992;2022-10-17T08:41:00;4.35;;;2.78;;
19842;SDS011;10082;51.038;6.992;2022-10-17T08:43:32;3.92;;;3.05;;
19842;SDS011;10082;51.038;6.992;2022-10-17T08:46:20;5.32;;;3.20;;
19842;SDS011;10082;51.038;6.992;2022-10-17T08:48:47;3.95;;;2.83;;
19842;SDS011;10082;51.038;6.992;2022-10-17T08:51:18;5.88;;;2.97;;
19842;SDS011;10082;51.038;6.992;2022-10-17T08:53:48;5.43;;;3.53;;
19842;SDS011;10082;51.038;6.992;2022-10-17T08:56:19;7.32;;;3.53;;
19842;SDS011;10082;51.038;6.992;2022-10-17T08:58:49;3.70;;;3.22;;
19842;SDS011;10082;51.038;6.992;2022-10-17T09:01:25;3.83;;;2.80;;
19842;SDS011;10082;51.038;6.992;2022-10-17T09:04:12;5.13;;;3.05;;
19842;SDS011;10082;51.038;6.992;2022-10-17T09:07:02;3.22;;;2.65;;
19842;SDS011;10082;51.038;6.992;2022-10-17T09:09:35;5.03;;;3.20;;
19842;SDS011;10082;51.038;6.992;2022-10-17T09:12:13;3.78;;;3.10;;
19842;SDS011;10082;51.038;6.992;2022-10-17T09:17:48;3.60;;;2.90;;
19842;SDS011;10082;51.038;6.992;2022-10-17T09:20:19;4.85;;;3.22;;
19842;SDS011;10082;51.038;6.992;2022-10-17T09:22:51;3.00;;;2.78;;
19842;SDS011;10082;51.038;6.992;2022-10-17T09:25:24;4.93;;;2.95;;
19842;SDS011;10082;51.038;6.992;2022-10-17T09:27:53;4.05;;;3.10;;
19842;SDS011;10082;51.038;6.992;2022-10-17T09:30:28;4.53;;;3.60;;
19842;SDS011;10082;51.038;6.992;2022-10-17T09:33:00;4.18;;;2.85;;
19842;SDS011;10082;51.038;6.992;2022-10-17T09:35:37;3.30;;;3.00;;
19842;SDS011;10082;51.038;6.992;2022-10-17T09:38:07;3.38;;;3.08;;
19842;SDS011;10082;51.038;6.992;2022-10-17T09:40:40;3.35;;;3.10;;
19842;SDS011;10082;51.038;6.992;2022-10-17T09:43:07;3.45;;;3.00;;
19842;SDS011;10082;51.038;6.992;2022-10-17T09:45:39;4.53;;;3.55;;
19842;SDS011;10082;51.038;6.992;2022-10-17T09:48:13;7.53;;;3.22;;
19842;SDS011;10082;51.038;6.992;2022-10-17T09:50:48;5.63;;;3.30;;
19842;SDS011;10082;51.038;6.992;2022-10-17T09:53:19;5.22;;;3.38;;
19842;SDS011;10082;51.038;6.992;2022-10-17T09:55:50;3.05;;;2.85;;
19842;SDS011;10082;51.038;6.992;2022-10-17T09:58:21;5.70;;;3.28;;
19842;SDS011;10082;51.038;6.992;2022-10-17T10:00:48;3.35;;;3.08;;
19842;SDS011;10082;51.038;6.992;2022-10-17T10:03:16;5.00;;;3.45;;
19842;SDS011;10082;51.038;6.992;2022-10-17T10:05:57;3.90;;;3.55;;
19842;SDS011;10082;51.038;6.992;2022-10-17T10:08:28;4.13;;;3.30;;
19842;SDS011;10082;51.038;6.992;2022-10-17T10:10:57;5.72;;;3.28;;
19842;SDS011;10082;51.038;6.992;2022-10-17T10:13:27;4.25;;;3.22;;
19842;SDS011;10082;51.038;6.992;2022-10-17T10:15:55;5.13;;;3.17;;
19842;SDS011;10082;51.038;6.992;2022-10-17T10:18:39;4.45;;;3.50;;
19842;SDS011;10082;51.038;6.992;2022-10-17T10:21:07;5.20;;;3.25;;
19842;SDS011;10082;51.038;6.992;2022-10-17T10:23:39;4.90;;;3.17;;
19842;SDS011;10082;51.038;6.992;2022-10-17T10:26:15;4.22;;;3.38;;
19842;SDS011;10082;51.038;6.992;2022-10-17T10:28:50;6.47;;;3.45;;
19842;SDS011;10082;51.038;6.992;2022-10-17T10:31:27;3.97;;;3.20;;
19842;SDS011;10082;51.038;6.992;2022-10-17T10:33:58;4.00;;;3.25;;
19842;SDS011;10082;51.038;6.992;2022-10-17T10:36:40;3.58;;;3.30;;
19842;SDS011;10082;51.038;6.992;2022-10-17T10:39:13;5.03;;;3.40;;
19842;SDS011;10082;51.038;6.992;2022-10-17T10:41:51;5.55;;;3.97;;
19842;SDS011;10082;51.038;6.992;2022-10-17T10:44:19;6.30;;;3.58;;
19842;SDS011;10082;51.038;6.992;2022-10-17T10:47:04;4.80;;;3.58;;
19842;SDS011;10082;51.038;6.992;2022-10-17T10:49:32;4.95;;;3.60;;
19842;SDS011;10082;51.038;6.992;2022-10-17T10:51:59;5.13;;;3.33;;
19842;SDS011;10082;51.038;6.992;2022-10-17T10:54:31;5.75;;;3.38;;
19842;SDS011;10082;51.038;6.992;2022-10-17T10:57:03;3.67;;;3.38;;
19842;SDS011;10082;51.038;6.992;2022-10-17T10:59:34;4.70;;;3.33;;
19842;SDS011;10082;51.038;6.992;2022-10-17T11:02:09;5.13;;;3.45;;
19842;SDS011;10082;51.038;6.992;2022-10-17T11:04:41;3.80;;;3.25;;
19842;SDS011;10082;51.038;6.992;2022-10-17T11:07:14;3.63;;;3.20;;
19842;SDS011;10082;51.038;6.992;2022-10-17T11:09:50;6.28;;;3.22;;
19842;SDS011;10082;51.038;6.992;2022-10-17T11:12:23;3.75;;;3.42;;
19842;SDS011;10082;51.038;6.992;2022-10-17T11:14:54;5.50;;;3.92;;
19842;SDS011;10082;51.038;6.992;2022-10-17T11:17:28;3.88;;;3.47;;
19842;SDS011;10082;51.038;6.992;2022-10-17T11:20:02;5.75;;;3.75;;
19842;SDS011;10082;51.038;6.992;2022-10-17T11:22:40;4.78;;;3.42;;
19842;SDS011;10082;51.038;6.992;2022-10-17T11:25:16;3.92;;;3.50;;
19842;SDS011;10082;51.038;6.992;2022-10-17T11:27:54;7.10;;;3.42;;
19842;SDS011;10082;51.038;6.992;2022-10-17T11:30:21;6.78;;;3.63;;
19842;SDS011;10082;51.038;6.992;2022-10-17T11:32:50;5.03;;;3.55;;
19842;SDS011;10082;51.038;6.992;2022-10-17T11:35:22;3.95;;;3.50;;
19842;SDS011;10082;51.038;6.992;2022-10-17T11:37:57;4.93;;;3.42;;
19842;SDS011;10082;51.038;6.992;2022-10-17T11:40:34;3.80;;;3.50;;
19842;SDS011;10082;51.038;6.992;2022-10-17T11:43:05;4.93;;;4.00;;
19842;SDS011;10082;51.038;6.992;2022-10-17T11:45:39;4.13;;;3.45;;
19842;SDS011;10082;51.038;6.992;2022-10-17T11:48:11;6.20;;;3.50;;
19842;SDS011;10082;51.038;6.992;2022-10-17T11:50:44;7.18;;;3.53;;
19842;SDS011;10082;51.038;6.992;2022-10-17T11:53:15;4.47;;;3.50;;
19842;SDS011;10082;51.038;6.992;2022-10-17T11:55:46;4.55;;;3.35;;
19842;SDS011;10082;51.038;6.992;2022-10-17T11:58:21;8.02;;;3.65;;
19842;SDS011;10082;51.038;6.992;2022-10-17T12:01:00;5.03;;;3.80;;
19842;SDS011;10082;51.038;6.992;2022-10-17T12:03:38;4.45;;;3.50;;
19842;SDS011;10082;51.038;6.992;2022-10-17T12:06:16;6.68;;;3.88;;
19842;SDS011;10082;51.038;6.992;2022-10-17T12:08:57;5.30;;;3.53;;
19842;SDS011;10082;51.038;6.992;2022-10-17T12:11:37;4.55;;;3.45;;
19842;SDS011;10082;51.038;6.992;2022-10-17T12:17:01;5.82;;;5.22;;
19842;SDS011;10082;51.038;6.992;2022-10-17T12:19:30;8.65;;;4.40;;
19842;SDS011;10082;51.038;6.992;2022-10-17T12:22:01;4.70;;;3.97;;
19842;SDS011;10082;51.038;6.992;2022-10-17T12:24:35;4.80;;;3.63;;
19842;SDS011;10082;51.038;6.992;2022-10-17T12:27:21;9.30;;;5.05;;
19842;SDS011;10082;51.038;6.992;2022-10-17T12:30:00;9.98;;;5.50;;
19842;SDS011;10082;51.038;6.992;2022-10-17T12:32:28;8.00;;;4.18;;
19842;SDS011;10082;51.038;6.992;2022-10-17T12:34:55;4.72;;;3.90;;
19842;SDS011;10082;51.038;6.992;2022-10-17T12:43:35;3.90;;;3.60;;
19842;SDS011;10082;51.038;6.992;2022-10-17T12:46:09;4.43;;;3.83;;
19842;SDS011;10082;51.038;6.992;2022-10-17T12:51:25;8.98;;;4.50;;
19842;SDS011;10082;51.038;6.992;2022-10-17T12:53:56;5.07;;;4.07;;
19842;SDS011;10082;51.038;6.992;2022-10-17T12:56:31;5.57;;;3.95;;
19842;SDS011;10082;51.038;6.992;2022-10-17T12:59:06;5.45;;;4.13;;
19842;SDS011;10082;51.038;6.992;2022-10-17T13:01:38;4.60;;;4.00;;
19842;SDS011;10082;51.038;6.992;2022-10-17T13:04:09;4.93;;;3.75;;
19842;SDS011;10082;51.038;6.992;2022-10-17T13:06:37;4.93;;;3.85;;
19842;SDS011;10082;51.038;6.992;2022-10-17T13:09:15;5.43;;;4.00;;
19842;SDS011;10082;51.038;6.992;2022-10-17T13:11:47;7.30;;;3.78;;
19842;SDS011;10082;51.038;6.992;2022-10-17T13:14:17;4.97;;;4.05;;
19842;SDS011;10082;51.038;6.992;2022-10-17T13:16:50;5.57;;;4.30;;
19842;SDS011;10082;51.038;6.992;2022-10-17T13:19:19;7.78;;;4.00;;
19842;SDS011;10082;51.038;6.992;2022-10-17T13:21:51;6.55;;;4.40;;
19842;SDS011;10082;51.038;6.992;2022-10-17T13:24:21;5.10;;;4.60;;
19842;SDS011;10082;51.038;6.992;2022-10-17T13:26:48;7.00;;;4.20;;
19842;SDS011;10082;51.038;6.992;2022-10-17T13:29:17;6.60;;;4.28;;
19842;SDS011;10082;51.038;6.992;2022-10-17T13:31:50;6.53;;;3.70;;
19842;SDS011;10082;51.038;6.992;2022-10-17T13:34:19;5.43;;;4.22;;
19842;SDS011;10082;51.038;6.992;2022-10-17T13:36:49;6.68;;;4.35;;
19842;SDS011;10082;51.038;6.992;2022-10-17T13:39:19;6.60;;;3.65;;
19842;SDS011;10082;51.038;6.992;2022-10-17T13:41:49;6.22;;;4.18;;
19842;SDS011;10082;51.038;6.992;2022-10-17T13:44:22;5.07;;;4.07;;
19842;SDS011;10082;51.038;6.992;2022-10-17T13:46:51;7.85;;;3.83;;
19842;SDS011;10082;51.038;6.992;2022-10-17T13:49:20;7.40;;;4.50;;
19842;SDS011;10082;51.038;6.992;2022-10-17T13:51:49;5.53;;;3.17;;
19842;SDS011;10082;51.038;6.992;2022-10-17T13:54:18;7.70;;;3.40;;
19842;SDS011;10082;51.038;6.992;2022-10-17T13:56:57;5.55;;;3.25;;
19842;SDS011;10082;51.038;6.992;2022-10-17T13:59:26;4.10;;;2.83;;
19842;SDS011;10082;51.038;6.992;2022-10-17T14:01:57;4.40;;;3.20;;
19842;SDS011;10082;51.038;6.992;2022-10-17T14:04:25;4.35;;;3.05;;
19842;SDS011;10082;51.038;6.992;2022-10-17T14:06:52;3.50;;;3.20;;
19842;SDS011;10082;51.038;6.992;2022-10-17T14:09:20;5.82;;;2.92;;
19842;SDS011;10082;51.038;6.992;2022-10-17T14:11:56;5.95;;;3.38;;
19842;SDS011;10082;51.038;6.992;2022-10-17T14:14:26;5.78;;;3.30;;
19842;SDS011;10082;51.038;6.992;2022-10-17T14:16:54;5.35;;;2.90;;
19842;SDS011;10082;51.038;6.992;2022-10-17T14:19:23;6.88;;;3.28;;
19842;SDS011;10082;51.038;6.992;2022-10-17T14:21:52;7.25;;;3.28;;
19842;SDS011;10082;51.038;6.992;2022-10-17T14:24:30;8.85;;;3.47;;
19842;SDS011;10082;51.038;6.992;2022-10-17T14:27:00;7.55;;;3.33;;
19842;SDS011;10082;51.038;6.992;2022-10-17T14:29:30;5.18;;;3.55;;
19842;SDS011;10082;51.038;6.992;2022-10-17T14:31:59;9.20;;;4.55;;
19842;SDS011;10082;51.038;6.992;2022-10-17T14:34:30;6.80;;;3.90;;
19842;SDS011;10082;51.038;6.992;2022-10-17T14:37:00;5.88;;;3.90;;
19842;SDS011;10082;51.038;6.992;2022-10-17T14:39:33;6.45;;;3.40;;
19842;SDS011;10082;51.038;6.992;2022-10-17T14:42:00;6.38;;;3.15;;
19842;SDS011;10082;51.038;6.992;2022-10-17T14:44:29;5.43;;;3.58;;
19842;SDS011;10082;51.038;6.992;2022-10-17T14:46:59;7.10;;;3.25;;
19842;SDS011;10082;51.038;6.992;2022-10-17T14:49:32;5.80;;;3.17;;
19842;SDS011;10082;51.038;6.992;2022-10-17T14:54:51;5.38;;;3.17;;
19842;SDS011;10082;51.038;6.992;2022-10-17T14:57:21;6.90;;;3.53;;
19842;SDS011;10082;51.038;6.992;2022-10-17T14:59:51;5.45;;;3.17;;
19842;SDS011;10082;51.038;6.992;2022-10-17T15:02:19;6.13;;;2.85;;
19842;SDS011;10082;51.038;6.992;2022-10-17T15:04:46;4.88;;;3.15;;
19842;SDS011;10082;51.038;6.992;2022-10-17T15:07:13;5.40;;;3.20;;
19842;SDS011;10082;51.038;6.992;2022-10-17T15:09:41;6.72;;;3.40;;
19842;SDS011;10082;51.038;6.992;2022-10-17T15:12:11;5.40;;;3.50;;
19842;SDS011;10082;51.038;6.992;2022-10-17T15:14:41;5.43;;;3.13;;
19842;SDS011;10082;51.038;6.992;2022-10-17T15:17:12;5.75;;;3.35;;
19842;SDS011;10082;51.038;6.992;2022-10-17T15:19:40;7.55;;;4.88;;
19842;SDS011;10082;51.038;6.992;2022-10-17T15:22:07;5.30;;;3.25;;
19842;SDS011;10082;51.038;6.992;2022-10-17T15:24:34;7.10;;;3.15;;
19842;SDS011;10082;51.038;6.992;2022-10-17T15:27:01;6.53;;;3.08;;
19842;SDS011;10082;51.038;6.992;2022-10-17T15:29:28;6.80;;;3.30;;
19842;SDS011;10082;51.038;6.992;2022-10-17T15:31:55;6.28;;;3.33;;
19842;SDS011;10082;51.038;6.992;2022-10-17T15:34:23;4.53;;;3.10;;
19842;SDS011;10082;51.038;6.992;2022-10-17T15:36:50;5.53;;;3.30;;
19842;SDS011;10082;51.038;6.992;2022-10-17T15:39:18;7.55;;;3.75;;